This is the latest recevied weather packets stored in our database for station/object FW4141. If no packets are shown the sender has not sent any weather packets the latest 10 day(s).
| Time | Temp. | Humidity | Pressure | Rain* | Wind** | Luminosity | Snow |
|---|---|---|---|---|---|---|---|
| 1777860638 | 13.89° C | 53% | 1005.7 hPa | 0 mm | - | - | - |
| 1777856473 | 16.11° C | 52% | 1005.1 hPa | 0 mm | - | - | - |
| 1777851645 | 17.22° C | 51% | 1005.3 hPa | 0 mm | - | - | - |
| 1777850438 | 17.22° C | 50% | 1005.4 hPa | 0 mm | - | - | - |
| 1777842650 | 18.33° C | 44% | 1005.7 hPa | 0 mm | - | - | - |
| 1777837823 | 19.44° C | 41% | 1005.9 hPa | 0 mm | - | - | - |
| 1777837216 | 19.44° C | 41% | 1005.9 hPa | 0 mm | - | - | - |
| 1777831854 | 24.44° C | 25% | 1005.4 hPa | 0 mm | - | - | - |
| 1777827025 | 28.33° C | 14% | 1005 hPa | 0 mm | - | - | - |
| 1777821041 | 30.56° C | 14% | 1005.4 hPa | 0 mm | - | - | - |
| 1777819230 | 30° C | 14% | 1005.7 hPa | 0 mm | - | - | - |
| 1777817439 | 30.56° C | 14% | 1005.9 hPa | 0 mm | - | - | - |
| 1777816274 | 31.11° C | 15% | 1006.1 hPa | 0 mm | - | - | - |
| 1777812049 | 30.56° C | 14% | 1006.8 hPa | 0 mm | - | - | - |
| 1777809035 | 30.56° C | 13% | 1007.1 hPa | 0 mm | - | - | - |
| 1777807223 | 30° C | 14% | 1007.3 hPa | 0 mm | - | - | - |
| 1777805483 | 29.44° C | 14% | 1007.5 hPa | 0 mm | - | - | - |
| 1777804873 | 28.89° C | 19% | 1007.6 hPa | 0 mm | - | - | - |
| 1777801245 | 27.78° C | 20% | 1008.1 hPa | 0 mm | - | - | - |
| 1777799436 | 26.67° C | 25% | 1008.4 hPa | 0 mm | - | - | - |
| 1777798226 | 26.67° C | 26% | 1008.4 hPa | 0 mm | - | - | - |
| 1777792252 | 23.33° C | 29% | 1008.7 hPa | 0 mm | - | - | - |
| 1777791648 | 23.33° C | 30% | 1008.8 hPa | 0 mm | - | - | - |
| 1777790441 | 22.78° C | 31% | 1008.8 hPa | 0 mm | - | - | - |
| 1777788032 | 21.67° C | 33% | 1008.9 hPa | 0 mm | - | - | - |
* Rain latest hour (hover to see other rain measurements)
** Current wind speed in m/s (hover to see current wind gust speed)